createdAt,value
2017-12-27T00:00:54.283Z,7.47
2017-12-27T00:06:01.947Z,6.47
2017-12-27T00:11:09.524Z,10.40
2017-12-27T00:16:16.941Z,10.93
2017-12-27T00:21:24.568Z,6.13
2017-12-27T00:26:32.217Z,5.20
2017-12-27T00:31:34.413Z,5.30
2017-12-27T00:36:35.888Z,5.10
2017-12-27T00:41:37.365Z,5.73
2017-12-27T00:46:38.870Z,4.90
2017-12-27T00:51:40.363Z,8.73
2017-12-27T00:56:42.615Z,6.17
2017-12-27T01:01:44.072Z,9.90
2017-12-27T01:06:45.643Z,7.60
2017-12-27T01:11:47.159Z,7.67
2017-12-27T01:16:49.465Z,6.97
2017-12-27T01:21:51.000Z,7.47
2017-12-27T01:26:53.265Z,4.77
2017-12-27T01:31:54.842Z,5.00
2017-12-27T01:36:57.179Z,6.70
2017-12-27T01:41:58.770Z,5.40
2017-12-27T01:47:10.520Z,8.80
2017-12-27T01:52:12.721Z,8.60
2017-12-27T01:57:14.369Z,12.00
2017-12-27T02:02:16.644Z,8.37
2017-12-27T02:07:18.157Z,8.70
2017-12-27T02:12:19.695Z,12.63
2017-12-27T02:17:21.961Z,6.53
2017-12-27T02:22:23.514Z,8.50
2017-12-27T02:27:25.067Z,7.10
2017-12-27T02:32:26.577Z,8.20
2017-12-27T02:37:28.864Z,7.17
2017-12-27T02:42:31.140Z,8.87
2017-12-27T02:47:33.365Z,8.33
2017-12-27T02:52:34.916Z,6.80
2017-12-27T02:57:36.413Z,6.87
2017-12-27T03:02:37.886Z,7.50
2017-12-27T03:07:39.342Z,8.17
2017-12-27T03:12:40.868Z,9.83
2017-12-27T03:17:43.110Z,7.80
2017-12-27T03:22:44.615Z,6.70
2017-12-27T03:27:46.873Z,5.90
2017-12-27T03:32:48.412Z,6.37
2017-12-27T03:37:49.965Z,4.67
2017-12-27T03:42:51.538Z,4.23
2017-12-27T03:47:53.108Z,5.03
2017-12-27T03:52:54.641Z,9.03
2017-12-27T03:57:56.985Z,4.87
2017-12-27T04:02:58.459Z,4.50
2017-12-27T04:08:00.016Z,6.20
2017-12-27T04:13:01.567Z,5.70
2017-12-27T04:18:03.081Z,5.50
2017-12-27T04:23:04.628Z,6.20
2017-12-27T04:28:06.146Z,5.70
2017-12-27T04:33:08.402Z,6.17
2017-12-27T04:38:09.978Z,7.50
2017-12-27T04:43:12.222Z,6.53
2017-12-27T04:48:13.766Z,6.90
2017-12-27T04:53:15.340Z,7.50
2017-12-27T04:58:16.853Z,5.70
2017-12-27T05:03:18.388Z,4.70
2017-12-27T05:08:19.912Z,5.73
2017-12-27T05:13:22.238Z,5.50
2017-12-27T05:18:23.786Z,5.17
2017-12-27T05:23:25.302Z,5.80
2017-12-27T05:28:26.841Z,6.43
2017-12-27T05:33:28.354Z,7.67
2017-12-27T05:38:30.585Z,7.00
2017-12-27T05:43:32.068Z,5.27
2017-12-27T05:48:33.548Z,11.07
2017-12-27T05:53:35.862Z,3.40
2017-12-27T05:58:38.157Z,4.77
2017-12-27T06:03:39.639Z,8.57
2017-12-27T06:08:41.160Z,7.73
2017-12-27T06:13:42.707Z,11.43
2017-12-27T06:18:44.204Z,9.23
2017-12-27T06:23:45.720Z,3.30
2017-12-27T06:28:47.276Z,5.23
2017-12-27T06:33:48.837Z,6.03
2017-12-27T06:38:51.184Z,9.57
2017-12-27T06:43:52.705Z,8.70
2017-12-27T06:48:54.246Z,9.47
2017-12-27T06:53:56.561Z,9.40
2017-12-27T06:58:58.034Z,7.37
2017-12-27T07:03:59.559Z,8.73
2017-12-27T07:09:01.873Z,10.67
2017-12-27T07:14:03.432Z,6.73
2017-12-27T07:19:04.991Z,5.70
2017-12-27T07:24:06.647Z,7.57
2017-12-27T07:29:08.884Z,10.57
2017-12-27T07:34:10.421Z,10.43
2017-12-27T07:39:11.969Z,9.73
2017-12-27T07:44:14.220Z,6.13
2017-12-27T07:49:15.816Z,11.50
2017-12-27T07:54:18.068Z,7.57
2017-12-27T07:59:19.559Z,14.83
2017-12-27T08:04:21.069Z,7.47
2017-12-27T08:09:22.544Z,6.77
2017-12-27T08:14:24.100Z,13.90
2017-12-27T08:19:25.553Z,14.53
2017-12-27T08:24:27.114Z,11.57
2017-12-27T08:29:28.666Z,10.27
2017-12-27T08:34:30.968Z,8.77
2017-12-27T08:39:33.321Z,10.57
2017-12-27T08:44:34.840Z,12.10
2017-12-27T08:49:36.329Z,10.27
2017-12-27T08:54:37.845Z,7.50
2017-12-27T08:59:40.145Z,6.80
2017-12-27T09:04:41.661Z,8.73
2017-12-27T09:09:43.212Z,5.27
2017-12-27T09:14:44.791Z,12.20
2017-12-27T09:19:46.320Z,7.57
2017-12-27T09:24:47.882Z,8.30
2017-12-27T09:29:49.487Z,4.23
2017-12-27T09:34:58.175Z,6.83
2017-12-27T09:39:59.709Z,13.70
2017-12-27T09:45:01.272Z,3.20
2017-12-27T09:50:02.730Z,4.70
2017-12-27T09:55:04.271Z,5.33
2017-12-27T10:00:05.757Z,4.83
2017-12-27T10:05:07.278Z,4.00
2017-12-27T10:10:09.557Z,4.60
2017-12-27T10:15:11.853Z,10.77
2017-12-27T10:20:13.361Z,4.53
2017-12-27T10:25:14.924Z,5.13
2017-12-27T10:30:16.486Z,3.87
2017-12-27T10:35:18.141Z,7.57
2017-12-27T10:40:19.645Z,3.77
2017-12-27T10:45:21.186Z,4.90
2017-12-27T10:50:22.714Z,6.10
2017-12-27T10:55:24.996Z,4.10
2017-12-27T11:00:27.202Z,6.90
2017-12-27T11:05:28.728Z,5.77
2017-12-27T11:10:30.235Z,5.53
2017-12-27T11:15:31.923Z,5.87
2017-12-27T11:20:33.432Z,6.50
2017-12-27T11:25:34.978Z,4.03
2017-12-27T11:30:36.528Z,7.73
2017-12-27T11:35:38.072Z,9.23
2017-12-27T11:40:40.359Z,6.93
2017-12-27T11:45:41.868Z,51.27
2017-12-27T11:50:43.402Z,6.93
2017-12-27T11:55:44.959Z,5.80
2017-12-27T12:00:46.508Z,6.47
2017-12-27T12:05:48.063Z,7.40
2017-12-27T12:10:49.585Z,5.90
2017-12-27T12:15:51.132Z,7.53
2017-12-27T12:20:52.657Z,7.93
2017-12-27T12:25:54.192Z,7.10
2017-12-27T12:30:55.678Z,5.87
2017-12-27T12:35:57.244Z,8.97
2017-12-27T12:40:58.674Z,10.60
2017-12-27T12:46:00.147Z,6.93
2017-12-27T12:51:01.585Z,7.90
2017-12-27T12:56:03.842Z,8.87
2017-12-27T13:01:05.353Z,8.37
2017-12-27T13:06:06.906Z,7.53
2017-12-27T13:11:09.224Z,6.30
2017-12-27T13:16:10.940Z,10.30
2017-12-27T13:21:12.676Z,8.00
2017-12-27T13:26:14.220Z,6.57
2017-12-27T13:31:15.761Z,7.50
2017-12-27T13:36:18.194Z,7.57
2017-12-27T13:41:19.625Z,6.53
2017-12-27T13:46:21.906Z,6.10
2017-12-27T13:51:24.197Z,11.40
2017-12-27T13:56:26.509Z,8.03
2017-12-27T14:01:27.959Z,7.10
2017-12-27T14:06:29.473Z,6.63
2017-12-27T14:11:31.032Z,34.63
2017-12-27T14:16:32.525Z,11.90
2017-12-27T14:21:34.000Z,10.20
2017-12-27T14:26:36.276Z,7.60
2017-12-27T14:31:38.000Z,6.27
2017-12-27T14:36:39.584Z,9.03
2017-12-27T14:41:41.084Z,8.10
2017-12-27T14:46:42.657Z,10.10
2017-12-27T14:51:44.176Z,10.27
2017-12-27T14:56:45.694Z,7.50
2017-12-27T15:01:47.184Z,12.20
2017-12-27T15:06:48.736Z,22.00
2017-12-27T15:11:50.292Z,16.63
2017-12-27T15:16:52.649Z,12.60
2017-12-27T15:21:54.191Z,10.10
2017-12-27T15:26:55.673Z,10.87
2017-12-27T15:31:57.211Z,13.33
2017-12-27T15:36:58.804Z,13.67
2017-12-27T15:42:00.360Z,9.57
2017-12-27T15:47:01.953Z,10.03
2017-12-27T15:52:04.335Z,12.10
2017-12-27T15:57:05.865Z,10.70
2017-12-27T16:02:07.429Z,10.50
2017-12-27T16:07:08.946Z,15.27
2017-12-27T16:12:10.484Z,14.10
2017-12-27T16:17:12.036Z,12.87
2017-12-27T16:22:13.616Z,19.47
2017-12-27T16:27:15.083Z,18.20
2017-12-27T16:32:16.595Z,12.83
2017-12-27T16:37:18.103Z,15.80
2017-12-27T16:42:19.711Z,16.47
2017-12-27T16:47:21.265Z,18.57
2017-12-27T16:52:22.768Z,20.97
2017-12-27T16:57:24.352Z,16.83
2017-12-27T17:02:25.887Z,22.90
2017-12-27T17:07:27.424Z,15.30
2017-12-27T17:12:28.916Z,18.60
2017-12-27T17:17:30.525Z,21.90
2017-12-27T17:22:32.734Z,23.13
2017-12-27T17:27:34.224Z,24.07
2017-12-27T17:32:35.787Z,28.63
2017-12-27T17:37:44.279Z,26.40
2017-12-27T17:42:45.814Z,29.20
2017-12-27T17:47:47.411Z,22.60
2017-12-27T17:52:49.888Z,19.47
2017-12-27T17:57:51.437Z,25.17
2017-12-27T18:02:53.002Z,21.97
2017-12-27T18:07:54.481Z,25.03
2017-12-27T18:12:55.971Z,31.77
2017-12-27T18:17:58.163Z,33.67
2017-12-27T18:23:00.509Z,33.30
2017-12-27T18:28:02.064Z,31.47
2017-12-27T18:33:03.498Z,28.23
2017-12-27T18:38:05.275Z,33.93
2017-12-27T18:43:06.741Z,27.27
2017-12-27T18:48:08.280Z,27.70
2017-12-27T18:53:10.528Z,27.77
2017-12-27T18:58:12.147Z,29.30
2017-12-27T19:03:14.471Z,46.70
2017-12-27T19:08:16.020Z,33.63
2017-12-27T19:13:17.558Z,33.07
2017-12-27T19:18:19.757Z,32.97
2017-12-27T19:23:21.244Z,31.93
2017-12-27T19:28:22.812Z,39.77
2017-12-27T19:33:24.371Z,51.40
2017-12-27T19:38:25.907Z,42.90
2017-12-27T19:43:28.205Z,44.90
2017-12-27T19:48:29.800Z,44.97
2017-12-27T19:53:31.336Z,42.13
2017-12-27T19:58:33.646Z,37.50
2017-12-27T20:03:35.239Z,37.33
2017-12-27T20:08:36.788Z,54.93
2017-12-27T20:13:38.390Z,44.40
2017-12-27T20:18:39.936Z,79.70
2017-12-27T20:23:41.424Z,44.30
2017-12-27T20:28:42.986Z,38.83
2017-12-27T20:33:44.517Z,44.60
2017-12-27T20:38:46.144Z,62.53
2017-12-27T20:43:47.633Z,41.90
2017-12-27T20:48:49.958Z,47.07
2017-12-27T20:53:51.425Z,40.17
2017-12-27T20:58:52.974Z,44.80
2017-12-27T21:03:54.574Z,41.70
2017-12-27T21:08:56.116Z,34.93
2017-12-27T21:13:57.718Z,61.53
2017-12-27T21:18:59.223Z,47.97
2017-12-27T21:24:01.594Z,44.50
2017-12-27T21:29:03.177Z,41.70
2017-12-27T21:34:05.567Z,36.07
2017-12-27T21:39:07.838Z,33.40
2017-12-27T21:44:09.403Z,21.10
2017-12-27T21:49:16.921Z,19.23
2017-12-27T21:54:19.245Z,12.70
2017-12-27T21:59:26.880Z,19.80
2017-12-27T22:04:28.414Z,7.63
2017-12-27T22:09:29.925Z,6.90
2017-12-27T22:14:31.621Z,7.57
2017-12-27T22:19:33.920Z,6.23
2017-12-27T22:24:36.220Z,9.60
2017-12-27T22:29:37.727Z,6.50
2017-12-27T22:34:39.318Z,7.57
2017-12-27T22:39:40.910Z,10.03
2017-12-27T22:44:42.438Z,8.50
2017-12-27T22:49:44.012Z,6.63
2017-12-27T22:54:45.671Z,7.90
2017-12-27T22:59:47.241Z,7.40
2017-12-27T23:04:48.799Z,7.87
2017-12-27T23:09:50.345Z,8.73
2017-12-27T23:14:51.938Z,9.20
2017-12-27T23:19:53.542Z,6.10
2017-12-27T23:24:55.846Z,13.27
2017-12-27T23:29:57.396Z,11.00
2017-12-27T23:34:59.688Z,12.07
2017-12-27T23:40:02.013Z,9.13
2017-12-27T23:45:04.409Z,18.83
2017-12-27T23:50:05.958Z,9.93
2017-12-27T23:55:07.481Z,10.13
